Time;durP1;ratioP1;P1;durP2;ratioP2;P2;SDS_P1;SDS_P2;PMS_P1;PMS_P2;Temp;Humidity;BMP_temperature;BMP_pressure;BME280_temperature;BME280_humidity;BME280_pressure;Samples;Min_cycle;Max_cycle;Signal;HPM_P1;HPM_P2
2021/09/23 00:00:05;;;;;;;6.97;4.00;;;;;;;8.75;86.65;99867.20;1729502;83;21270;-77
2021/09/23 00:03:11;;;;;;;7.72;4.12;;;;;;;8.73;86.77;99867.88;1728176;83;21226;-77
2021/09/23 00:06:17;;;;;;;7.22;4.37;;;;;;;8.74;87.00;99864.12;1728844;83;21420;-81
2021/09/23 00:09:23;;;;;;;5.70;3.42;;;;;;;8.74;87.15;99865.48;1729527;83;21171;-81
2021/09/23 00:12:29;;;;;;;9.20;4.42;;;;;;;8.75;87.24;99864.48;1727963;83;21771;-81
2021/09/23 00:15:36;;;;;;;5.33;3.60;;;;;;;8.74;87.31;99865.48;1728103;83;21298;-78
2021/09/23 00:18:41;;;;;;;6.65;4.35;;;;;;;8.71;87.35;99859.03;1728058;83;21279;-82
2021/09/23 00:21:47;;;;;;;6.17;3.87;;;;;;;8.69;87.57;99861.06;1728062;82;21762;-81
2021/09/23 00:24:53;;;;;;;9.53;4.03;;;;;;;8.72;87.75;99858.00;1729514;83;21214;-81
2021/09/23 00:28:01;;;;;;;8.08;5.05;;;;;;;8.73;87.79;99855.61;1728188;83;21238;-77
2021/09/23 00:31:06;;;;;;;7.87;5.30;;;;;;;8.76;87.90;99854.42;1729489;83;21282;-82
2021/09/23 00:34:11;;;;;;;7.28;4.58;;;;;;;8.77;87.98;99848.78;1730213;83;21268;-78
2021/09/23 00:37:15;;;;;;;6.58;4.92;;;;;;;8.77;88.02;99851.50;1729507;83;21184;-81
2021/09/23 00:40:22;;;;;;;6.92;5.22;;;;;;;8.77;88.14;99844.69;1728730;83;21169;-77
2021/09/23 00:43:26;;;;;;;8.15;5.00;;;;;;;8.78;88.18;99850.98;1680676;85;21298;-79
2021/09/23 00:46:31;;;;;;;6.33;4.72;;;;;;;8.78;88.25;99844.17;1652733;87;21251;-77
2021/09/23 00:49:37;;;;;;;6.83;4.42;;;;;;;8.78;88.33;99846.90;1679177;85;21185;-77
2021/09/23 00:52:43;;;;;;;6.53;4.85;;;;;;;8.77;88.37;99846.05;1679472;85;21185;-81
2021/09/23 00:55:49;;;;;;;12.00;5.60;;;;;;;8.75;88.34;99846.75;1679205;85;21343;-81
2021/09/23 00:58:57;;;;;;;8.88;5.08;;;;;;;8.73;88.50;99848.79;1679344;85;21551;-77
2021/09/23 01:02:05;;;;;;;6.50;4.87;;;;;;;8.73;88.62;99850.67;1679140;85;21232;-77
2021/09/23 01:05:11;;;;;;;7.40;4.97;;;;;;;8.70;88.78;99845.92;1680509;85;21284;-81
2021/09/23 01:08:16;;;;;;;8.03;5.90;;;;;;;8.69;88.97;99847.44;1677788;85;21303;-77
2021/09/23 01:11:21;;;;;;;7.15;5.58;;;;;;;8.68;89.06;99847.95;1680625;85;21323;-81
2021/09/23 01:14:27;;;;;;;8.68;5.90;;;;;;;8.69;89.14;99852.89;1679291;85;21176;-77
2021/09/23 01:17:33;;;;;;;8.80;5.92;;;;;;;8.70;89.22;99852.73;1680594;85;21839;-77
2021/09/23 01:20:39;;;;;;;9.35;6.70;;;;;;;8.72;89.33;99854.42;1680657;85;21697;-78
2021/09/23 01:23:50;;;;;;;10.20;6.83;;;;;;;8.74;89.37;99848.27;1679814;85;21733;-77
2021/09/23 01:26:56;;;;;;;8.85;6.85;;;;;;;8.75;89.39;99845.39;1680603;85;22106;-83
2021/09/23 01:30:02;;;;;;;11.35;6.75;;;;;;;8.77;89.47;99846.05;1680664;85;21290;-82
2021/09/23 01:33:09;;;;;;;10.53;7.47;;;;;;;8.76;89.47;99845.72;1682395;85;21304;-78
2021/09/23 01:36:14;;;;;;;12.43;8.65;;;;;;;8.75;89.46;99839.06;1672547;85;21731;-78
2021/09/23 01:39:28;;;;;;;10.15;8.53;;;;;;;8.73;89.58;99832.95;1692082;85;21364;-78
2021/09/23 01:42:35;;;;;;;11.95;9.53;;;;;;;8.72;89.68;99832.09;1679608;85;21327;-77
2021/09/23 01:45:39;;;;;;;10.80;8.73;;;;;;;8.71;89.75;99830.41;1693189;85;21289;-81
2021/09/23 01:48:44;;;;;;;11.68;9.23;;;;;;;8.73;89.81;99829.70;1679679;85;21296;-78
2021/09/23 01:51:49;;;;;;;11.70;9.58;;;;;;;8.74;89.90;99833.27;1693248;85;21189;-81
2021/09/23 01:54:56;;;;;;;12.33;9.88;;;;;;;8.73;89.90;99832.42;1679722;85;21790;-81
2021/09/23 01:58:01;;;;;;;12.82;9.78;;;;;;;8.74;89.92;99833.27;1693044;85;21206;-78
2021/09/23 02:01:06;;;;;;;14.40;9.70;;;;;;;8.72;89.94;99836.70;1692967;85;21162;-82
2021/09/23 02:04:11;;;;;;;13.65;10.43;;;;;;;8.72;89.96;99825.28;1679447;85;21181;-81
2021/09/23 02:07:15;;;;;;;11.97;9.18;;;;;;;8.73;90.09;99831.06;1679006;85;21220;-82
2021/09/23 02:10:23;;;;;;;13.83;10.18;;;;;;;8.74;90.18;99833.27;1691807;85;21213;-82
2021/09/23 02:13:15;;;;;;;11.97;9.28;;;;;;;8.75;90.19;99834.48;1691793;84;21229;-82
2021/09/23 02:16:21;;;;;;;16.35;9.75;;;;;;;8.75;90.19;99837.21;1679315;85;21338;-81
2021/09/23 02:19:29;;;;;;;11.80;9.15;;;;;;;8.75;90.14;99841.78;1691526;85;21280;-81
2021/09/23 02:22:35;;;;;;;15.15;10.00;;;;;;;8.75;90.22;99847.23;1678047;85;21269;-81
2021/09/23 02:25:42;;;;;;;10.93;9.18;;;;;;;8.76;90.24;99844.88;1679388;85;21162;-78
2021/09/23 02:28:49;;;;;;;12.88;9.53;;;;;;;8.75;90.19;99848.12;1692170;85;21229;-82
2021/09/23 02:31:55;;;;;;;16.12;10.48;;;;;;;8.73;90.30;99839.25;1692668;85;21213;-82
2021/09/23 02:35:01;;;;;;;11.85;9.58;;;;;;;8.70;90.33;99833.65;1664076;85;21208;-82
2021/09/23 02:38:07;;;;;;;14.30;10.70;;;;;;;8.69;90.52;99831.08;1635708;87;21212;-77
2021/09/23 02:41:12;;;;;;;15.55;10.08;;;;;;;8.69;90.68;99829.20;1649425;86;21188;-78
2021/09/23 02:44:19;;;;;;;14.13;11.08;;;;;;;8.69;90.69;99830.56;1650715;87;21864;-81
2021/09/23 02:47:26;;;;;;;18.92;11.53;;;;;;;8.69;90.77;99826.98;1646803;86;21225;-82
2021/09/23 02:50:31;;;;;;;16.67;11.08;;;;;;;8.68;90.79;99826.66;1649364;87;21208;-77
2021/09/23 02:53:36;;;;;;;14.45;11.50;;;;;;;8.69;90.88;99839.25;1649434;87;21303;-78
2021/09/23 02:56:41;;;;;;;14.00;10.63;;;;;;;8.68;90.94;99837.56;1650515;86;21870;-78
2021/09/23 02:59:48;;;;;;;18.23;11.55;;;;;;;8.69;91.02;99829.71;1637273;87;21202;-78
2021/09/23 03:02:54;;;;;;;17.75;12.65;;;;;;;8.67;90.99;99835.87;1650939;86;21919;-81
2021/09/23 03:06:00;;;;;;;15.85;11.80;;;;;;;8.67;91.09;99835.87;1637268;87;21845;-82
2021/09/23 03:09:08;;;;;;;17.02;12.50;;;;;;;8.67;91.15;99839.95;1650134;87;21291;-78
2021/09/23 03:12:14;;;;;;;17.45;12.73;;;;;;;8.67;91.15;99836.72;1662048;85;21209;-81
2021/09/23 03:15:20;;;;;;;13.78;11.25;;;;;;;8.66;91.11;99839.63;1633763;88;21352;-81
2021/09/23 03:18:27;;;;;;;20.85;12.40;;;;;;;8.65;91.15;99846.08;1662180;86;21206;-81
2021/09/23 03:21:33;;;;;;;16.65;12.00;;;;;;;8.63;91.20;99843.54;1663149;85;21319;-81
2021/09/23 03:24:38;;;;;;;16.02;11.75;;;;;;;8.64;91.26;99845.75;1663382;86;21330;-77
2021/09/23 03:27:44;;;;;;;15.00;10.85;;;;;;;8.62;91.26;99841.84;1634978;87;21209;-81
2021/09/23 03:30:49;;;;;;;17.80;12.65;;;;;;;8.60;91.23;99845.76;1617726;89;21372;-77
2021/09/23 03:33:55;;;;;;;18.52;12.73;;;;;;;8.59;91.25;99844.06;1648043;87;21292;-78
2021/09/23 03:37:00;;;;;;;26.10;12.15;;;;;;;8.58;91.28;99839.13;1672069;85;21173;-81
2021/09/23 03:40:06;;;;;;;19.07;11.25;;;;;;;8.57;91.37;99833.34;1678085;85;21389;-81
2021/09/23 03:43:12;;;;;;;20.32;12.95;;;;;;;8.56;91.45;99834.86;1678353;85;21407;-77
2021/09/23 03:46:18;;;;;;;18.05;13.13;;;;;;;8.58;91.53;99832.83;1679517;85;21406;-78
2021/09/23 03:49:24;;;;;;;17.20;12.93;;;;;;;8.59;91.59;99834.52;1678246;85;21794;-81
2021/09/23 03:52:30;;;;;;;17.98;13.48;;;;;;;8.59;91.58;99834.00;1699780;84;21162;-81
2021/09/23 03:55:35;;;;;;;23.00;13.72;;;;;;;8.57;91.50;99833.34;1676059;85;21216;-78
2021/09/23 03:58:42;;;;;;;16.95;12.47;;;;;;;8.58;91.51;99831.47;1679585;84;21220;-78
2021/09/23 04:01:49;;;;;;;21.77;14.30;;;;;;;8.59;91.56;99837.25;1692074;84;21892;-79
2021/09/23 04:04:56;;;;;;;21.33;14.43;;;;;;;8.60;91.55;99837.58;1679472;85;21275;-78
2021/09/23 04:08:03;;;;;;;22.60;16.37;;;;;;;8.62;91.53;99840.48;1663099;85;21231;-82
2021/09/23 04:11:09;;;;;;;20.95;15.68;;;;;;;8.65;91.53;99840.63;1652154;85;21291;-82
2021/09/23 04:14:15;;;;;;;24.65;15.15;;;;;;;8.65;91.55;99835.17;1660633;85;21193;-81
2021/09/23 04:17:21;;;;;;;25.55;15.58;;;;;;;8.64;91.54;99834.84;1703226;83;21193;-82
2021/09/23 04:20:27;;;;;;;25.37;16.55;;;;;;;8.64;91.57;99837.05;1630996;87;21270;-78
2021/09/23 04:23:33;;;;;;;24.80;16.05;;;;;;;8.61;91.53;99837.42;1647507;87;21253;-82
2021/09/23 04:26:39;;;;;;;22.52;15.95;;;;;;;8.57;91.56;99837.44;1649123;85;21225;-81
2021/09/23 04:29:46;;;;;;;23.27;16.15;;;;;;;8.56;91.67;99844.41;1657977;86;21309;-76
2021/09/23 04:32:51;;;;;;;24.00;15.80;;;;;;;8.54;91.80;99836.41;1657914;86;21389;-78
2021/09/23 04:35:57;;;;;;;20.55;14.55;;;;;;;8.54;91.95;99839.14;1658661;86;21337;-81
2021/09/23 04:39:04;;;;;;;25.30;18.50;;;;;;;8.55;92.09;99839.98;1645384;87;21193;-81
2021/09/23 04:42:11;;;;;;;30.57;18.82;;;;;;;8.56;92.06;99843.92;1644132;87;21818;-77
2021/09/23 04:45:19;;;;;;;31.35;19.05;;;;;;;8.57;92.03;99847.48;1618514;87;21335;-81
2021/09/23 04:48:26;;;;;;;27.02;18.98;;;;;;;8.58;92.03;99849.19;1636686;87;21173;-81
2021/09/23 04:51:33;;;;;;;30.72;20.25;;;;;;;8.61;92.05;99850.18;1638403;87;21352;-81
2021/09/23 04:54:40;;;;;;;25.25;18.50;;;;;;;8.65;92.10;99858.34;1644166;87;21746;-81
2021/09/23 04:57:47;;;;;;;26.00;17.50;;;;;;;8.68;92.04;99862.10;1638109;87;21774;-77
2021/09/23 05:00:52;;;;;;;30.43;19.15;;;;;;;8.72;91.96;99858.00;1657126;86;21157;-77
2021/09/23 05:03:59;;;;;;;25.05;17.07;;;;;;;8.74;91.90;99856.45;1653876;86;21369;-80
2021/09/23 05:07:04;;;;;;;30.70;19.25;;;;;;;8.76;91.75;99853.91;1672017;84;21849;-77
2021/09/23 05:10:12;;;;;;;32.63;18.30;;;;;;;8.77;91.71;99853.39;1637366;86;21279;-77
2021/09/23 05:13:17;;;;;;;34.15;17.37;;;;;;;8.80;91.63;99855.25;1639653;86;21281;-79
2021/09/23 05:16:23;;;;;;;31.20;18.77;;;;;;;8.83;91.46;99851.31;1623261;87;21261;-76
2021/09/23 05:19:32;;;;;;;27.87;18.73;;;;;;;8.85;91.31;99857.45;1638003;86;21252;-80
2021/09/23 05:22:39;;;;;;;26.70;17.37;;;;;;;8.87;91.37;99856.23;1635548;86;21158;-77
2021/09/23 05:25:46;;;;;;;29.35;18.70;;;;;;;8.90;91.29;99858.63;1638341;86;21192;-81
2021/09/23 05:28:52;;;;;;;30.30;19.75;;;;;;;8.92;91.23;99860.64;1631992;86;21309;-77
2021/09/23 05:31:58;;;;;;;33.10;21.12;;;;;;;8.99;91.19;99859.92;1639718;86;21260;-80
2021/09/23 05:35:04;;;;;;;42.38;25.08;;;;;;;9.05;91.11;99860.09;1631308;86;21265;-81
2021/09/23 05:38:09;;;;;;;41.48;25.25;;;;;;;9.10;90.90;99863.13;1651201;85;21387;-77
2021/09/23 05:41:15;;;;;;;45.65;26.10;;;;;;;9.14;90.72;99867.21;1647611;86;21374;-81
2021/09/23 05:44:23;;;;;;;46.75;28.40;;;;;;;9.19;90.57;99864.80;1654278;86;21166;-81
2021/09/23 05:47:28;;;;;;;51.63;31.10;;;;;;;9.25;90.43;99861.86;1670068;84;21224;-82
2021/09/23 05:50:33;;;;;;;57.62;34.53;;;;;;;9.31;90.13;99865.23;1653227;86;21305;-81
2021/09/23 05:53:39;;;;;;;66.85;36.50;;;;;;;9.37;89.75;99865.90;1654451;86;21225;-81
2021/09/23 05:56:44;;;;;;;62.98;36.95;;;;;;;9.41;89.48;99865.88;1670120;85;21909;-81
2021/09/23 05:59:52;;;;;;;62.73;37.30;;;;;;;9.46;88.98;99867.55;1650217;85;21168;-82
2021/09/23 06:03:01;;;;;;;67.50;37.33;;;;;;;9.52;88.58;99871.95;1652853;85;21855;-77
2021/09/23 06:06:01;;;;;;;62.67;38.02;;;;;;;9.58;88.52;99869.86;1652493;86;21862;-82
2021/09/23 06:09:07;;;;;;;70.83;40.80;;;;;;;9.64;88.41;99870.49;1670214;84;21368;-81
2021/09/23 06:12:14;;;;;;;74.50;43.83;;;;;;;9.67;87.71;99868.78;1653496;85;21191;-81
2021/09/23 06:15:21;;;;;;;70.83;39.95;;;;;;;9.70;87.03;99868.42;1661948;85;21172;-82
2021/09/23 06:18:19;;;;;;;84.90;41.15;;;;;;;9.72;86.64;99874.02;1640940;85;21869;-81
2021/09/23 06:21:26;;;;;;;75.83;41.80;;;;;;;9.79;86.17;99870.59;1657318;85;21211;-82
2021/09/23 06:24:31;;;;;;;79.30;41.90;;;;;;;9.79;86.17;99870.59;1643541;86;21883;-81
2021/09/23 06:27:38;;;;;;;67.67;38.50;;;;;;;9.83;86.02;99867.28;1648797;86;21244;-82
2021/09/23 06:30:46;;;;;;;67.95;36.53;;;;;;;9.87;85.95;99869.98;1645040;86;21178;-83
2021/09/23 06:33:51;;;;;;;65.52;39.25;;;;;;;9.88;85.49;99862.15;1659589;86;21879;-84
2021/09/23 06:36:56;;;;;;;75.10;41.13;;;;;;;9.89;85.08;99866.57;1654581;85;21338;-84
2021/09/23 06:40:01;;;;;;;70.22;40.45;;;;;;;9.90;84.91;99866.90;1637926;85;21332;-84
2021/09/23 06:43:09;;;;;;;70.52;41.45;;;;;;;9.91;84.82;99867.22;1625067;87;21219;-84
2021/09/23 06:46:17;;;;;;;76.60;44.53;;;;;;;9.94;84.83;99866.87;1635094;87;21743;-84
2021/09/23 06:49:24;;;;;;;78.15;40.98;;;;;;;9.97;84.89;99869.25;1630695;85;21185;-84
2021/09/23 06:52:30;;;;;;;76.25;39.20;;;;;;;10.04;85.05;99869.34;1641954;85;21217;-85
2021/09/23 06:55:36;;;;;;;72.62;39.65;;;;;;;10.10;84.90;99867.77;1622994;87;21321;-84
2021/09/23 06:58:43;;;;;;;62.00;36.20;;;;;;;10.14;84.54;99865.84;1641189;85;21355;-85
2021/09/23 07:01:53;;;;;;;61.98;36.77;;;;;;;10.17;84.08;99870.10;1646105;85;21216;-83
2021/09/23 07:05:04;;;;;;;59.85;35.65;;;;;;;10.16;83.68;99871.11;1644505;85;21823;-84
2021/09/23 07:08:14;;;;;;;58.30;33.08;;;;;;;10.15;83.68;99867.53;1633323;86;21769;-82
2021/09/23 07:11:19;;;;;;;50.98;30.40;;;;;;;10.14;83.44;99874.05;1638329;85;21227;-83
2021/09/23 07:14:24;;;;;;;51.13;29.30;;;;;;;10.14;83.43;99875.41;1639999;85;21752;-82
2021/09/23 07:17:31;;;;;;;43.80;26.62;;;;;;;10.17;83.46;99871.47;1635266;85;21370;-82
2021/09/23 07:20:36;;;;;;;49.77;28.80;;;;;;;10.19;83.30;99869.39;1633723;85;21797;-83
2021/09/23 07:23:42;;;;;;;50.25;30.12;;;;;;;10.20;83.41;99871.08;1655949;85;21295;-83
2021/09/23 07:26:48;;;;;;;47.45;29.57;;;;;;;10.21;83.18;99864.08;1644218;86;21224;-83
2021/09/23 07:29:54;;;;;;;49.80;28.10;;;;;;;10.26;83.31;99868.16;1643685;85;21168;-82
2021/09/23 07:33:04;;;;;;;55.15;30.23;;;;;;;10.29;83.31;99873.26;1641804;86;21328;-82
2021/09/23 07:36:10;;;;;;;45.17;29.10;;;;;;;10.32;83.17;99864.18;1638862;87;21298;-82
2021/09/23 07:39:17;;;;;;;48.45;28.17;;;;;;;10.40;83.17;99866.84;1634427;86;21302;-81
2021/09/23 07:42:21;;;;;;;47.83;27.32;;;;;;;10.49;83.00;99862.99;1674047;84;21299;-80
2021/09/23 07:45:27;;;;;;;45.48;27.98;;;;;;;10.57;82.81;99855.72;1667433;84;21238;-82
2021/09/23 07:48:33;;;;;;;38.25;25.60;;;;;;;10.67;82.08;99853.55;1670334;84;21285;-82
2021/09/23 07:51:40;;;;;;;41.15;26.33;;;;;;;10.74;81.34;99852.62;1668960;84;21183;-81
2021/09/23 07:54:47;;;;;;;39.30;24.20;;;;;;;10.81;80.73;99850.49;1672577;84;21285;-81
2021/09/23 07:57:54;;;;;;;40.23;25.15;;;;;;;10.90;80.31;99850.20;1670551;84;21775;-77
2021/09/23 08:01:00;;;;;;;49.03;25.52;;;;;;;10.99;79.53;99844.96;1666301;84;21399;-76
2021/09/23 08:04:06;;;;;;;37.17;23.20;;;;;;;11.13;78.91;99843.77;1666006;84;21222;-77
2021/09/23 08:07:17;;;;;;;36.58;23.05;;;;;;;11.28;78.43;99841.00;1674544;84;21341;-76
2021/09/23 08:10:19;;;;;;;32.78;21.42;;;;;;;11.38;77.62;99839.64;1670103;84;21333;-77
2021/09/23 08:13:26;;;;;;;37.17;21.65;;;;;;;11.50;77.25;99831.27;1666268;85;21199;-77
2021/09/23 08:16:32;;;;;;;31.07;19.48;;;;;;;11.65;76.35;99829.84;1670430;84;21207;-79
2021/09/23 08:19:44;;;;;;;30.82;20.65;;;;;;;11.77;75.50;99824.17;1669922;84;21293;-76
2021/09/23 08:22:51;;;;;;;31.55;20.10;;;;;;;11.83;75.10;99821.20;1676517;84;21348;-77
2021/09/23 08:25:58;;;;;;;32.17;19.55;;;;;;;11.95;75.22;99821.02;1643816;85;21360;-77
2021/09/23 08:29:10;;;;;;;30.82;19.45;;;;;;;12.08;75.15;99813.92;1647021;85;21704;-77
2021/09/23 08:32:19;;;;;;;28.90;17.60;;;;;;;12.20;74.75;99821.95;1653337;85;21323;-77
2021/09/23 08:35:24;;;;;;;25.48;16.90;;;;;;;12.26;73.74;99812.91;1676576;84;21470;-77
2021/09/23 08:38:30;;;;;;;22.85;13.53;;;;;;;12.35;72.47;99813.09;1638768;86;21312;-77
2021/09/23 08:41:35;;;;;;;23.80;14.90;;;;;;;12.42;71.29;99809.89;1660424;85;21355;-82
2021/09/23 08:44:42;;;;;;;20.35;13.95;;;;;;;12.50;71.32;99810.23;1660474;84;21379;-83
2021/09/23 08:47:55;;;;;;;24.95;14.93;;;;;;;12.55;70.04;99809.11;1698796;81;21145;-83
2021/09/23 08:51:01;;;;;;;22.70;14.40;;;;;;;12.68;69.58;99808.34;1721002;82;21870;-77
2021/09/23 08:54:07;;;;;;;18.90;13.10;;;;;;;12.80;69.36;99806.74;1718312;81;21230;-77
2021/09/23 08:57:12;;;;;;;19.23;12.43;;;;;;;12.84;67.89;99800.30;1704721;83;21889;-78
2021/09/23 09:00:21;;;;;;;17.35;11.85;;;;;;;12.88;67.16;99801.59;1725211;81;21195;-77
2021/09/23 09:03:27;;;;;;;17.00;11.73;;;;;;;12.95;66.64;99806.60;1714111;81;21273;-81
2021/09/23 09:06:34;;;;;;;15.63;11.00;;;;;;;13.01;66.66;99801.13;1684970;81;21632;-83
2021/09/23 09:10:01;;;;;;;17.85;9.90;;;;;;;13.03;66.83;99804.53;1712929;81;21266;-82
2021/09/23 09:13:11;;;;;;;14.47;9.95;;;;;;;13.03;66.77;99794.05;1709861;81;21176;-83
2021/09/23 09:16:19;;;;;;;16.85;9.88;;;;;;;13.03;66.52;99798.17;1716842;81;21171;-84
2021/09/23 09:19:26;;;;;;;17.17;10.10;;;;;;;13.13;65.47;99795.91;1714353;82;21156;-78
2021/09/23 09:22:34;;;;;;;14.53;9.23;;;;;;;13.26;64.79;99797.87;1715802;81;21995;-77
2021/09/23 09:25:40;;;;;;;12.80;8.10;;;;;;;13.34;64.35;99799.59;1718320;81;21181;-77
2021/09/23 09:28:59;;;;;;;13.43;9.13;;;;;;;13.36;64.22;99796.98;1704715;82;21871;-77
2021/09/23 09:32:06;;;;;;;13.95;8.85;;;;;;;13.41;65.09;99805.44;1719040;81;21288;-77
2021/09/23 09:35:12;;;;;;;14.65;9.90;;;;;;;13.45;64.47;99802.57;1717254;81;21849;-77
2021/09/23 09:38:18;;;;;;;20.62;14.10;;;;;;;13.58;63.90;99805.05;1720663;81;21707;-83
2021/09/23 09:41:24;;;;;;;22.60;13.65;;;;;;;13.62;63.68;99806.33;1717418;82;21340;-83
2021/09/23 09:44:31;;;;;;;17.20;12.18;;;;;;;13.39;64.46;99803.41;1716559;81;21199;-82
2021/09/23 09:47:39;;;;;;;13.78;9.88;;;;;;;13.11;65.88;99803.48;1718458;81;21328;-82
2021/09/23 09:50:45;;;;;;;13.95;10.72;;;;;;;12.82;67.31;99809.27;1719230;82;21792;-83
2021/09/23 09:53:50;;;;;;;14.45;10.10;;;;;;;12.58;68.13;99810.61;1711738;81;21399;-83
2021/09/23 09:57:07;;;;;;;12.28;10.10;;;;;;;12.43;69.21;99817.06;1702172;81;21214;-83
2021/09/23 10:00:13;;;;;;;13.68;9.88;;;;;;;12.32;68.97;99810.73;1721743;81;21268;-83
2021/09/23 10:03:19;;;;;;;14.05;10.35;;;;;;;12.20;69.13;99823.32;1719324;81;21526;-78
2021/09/23 10:06:24;;;;;;;11.60;10.40;;;;;;;12.14;68.69;99826.83;1714895;81;21719;-84
2021/09/23 10:09:31;;;;;;;19.70;10.28;;;;;;;12.09;70.20;99823.34;1717155;81;22276;-77
2021/09/23 10:12:38;;;;;;;11.38;9.78;;;;;;;12.02;71.65;99818.31;1713423;81;21467;-77
2021/09/23 10:15:48;;;;;;;11.20;10.00;;;;;;;11.96;72.45;99825.97;1711113;81;21289;-83
2021/09/23 10:18:58;;;;;;;13.93;10.68;;;;;;;11.92;72.48;99828.24;1723489;81;21232;-83
2021/09/23 10:22:04;;;;;;;11.70;10.15;;;;;;;11.86;72.13;99830.41;1722946;81;22153;-83
2021/09/23 10:25:11;;;;;;;14.07;10.50;;;;;;;11.72;72.03;99835.41;1712663;82;21317;-83
2021/09/23 10:28:18;;;;;;;12.30;9.43;;;;;;;11.57;72.47;99834.59;1721157;81;21229;-83
2021/09/23 10:31:33;;;;;;;9.03;8.13;;;;;;;11.47;73.32;99831.64;1714291;81;21336;-84
2021/09/23 10:34:38;;;;;;;11.03;7.72;;;;;;;11.37;72.74;99838.48;1714657;81;21333;-82
2021/09/23 10:37:45;;;;;;;8.33;7.40;;;;;;;11.24;73.31;99837.79;1706252;81;21276;-83
2021/09/23 10:40:51;;;;;;;9.40;8.20;;;;;;;11.14;72.81;99835.88;1675905;83;21275;-83
2021/09/23 10:43:54;;;;;;;10.45;7.87;;;;;;;11.02;73.03;99838.80;1671394;83;21268;-83
2021/09/23 10:47:02;;;;;;;9.40;7.72;;;;;;;10.93;73.02;99838.05;1656040;83;21327;-84
2021/09/23 10:50:08;;;;;;;13.05;8.28;;;;;;;10.83;72.51;99845.17;1693954;83;21323;-85
2021/09/23 10:53:17;;;;;;;10.50;8.45;;;;;;;10.72;73.09;99842.89;1690971;83;21299;-83
2021/09/23 10:56:26;;;;;;;9.38;7.80;;;;;;;10.64;74.05;99834.80;1691042;83;21313;-84
2021/09/23 10:59:33;;;;;;;9.38;7.33;;;;;;;10.56;74.40;99843.94;1693424;83;21197;-83
2021/09/23 11:02:39;;;;;;;8.88;6.97;;;;;;;10.52;74.60;99844.50;1687735;83;21359;-84
2021/09/23 11:05:47;;;;;;;9.20;7.58;;;;;;;10.49;74.44;99843.85;1685865;83;21830;-83
2021/09/23 11:08:55;;;;;;;9.30;7.90;;;;;;;10.49;74.92;99841.61;1691017;83;21143;-83
2021/09/23 11:12:05;;;;;;;10.88;9.78;;;;;;;10.49;75.07;99850.69;1678742;83;21264;-77
2021/09/23 11:15:13;;;;;;;12.40;9.38;;;;;;;10.47;75.69;99841.80;1687753;83;21175;-77
2021/09/23 11:18:20;;;;;;;11.48;8.93;;;;;;;10.48;76.29;99846.23;1690329;83;21928;-77
2021/09/23 11:21:26;;;;;;;13.75;10.88;;;;;;;10.49;76.56;99845.22;1672868;83;21241;-77
2021/09/23 11:24:34;;;;;;;11.97;10.60;;;;;;;10.49;76.60;99846.59;1664739;83;21741;-77
2021/09/23 11:27:39;;;;;;;15.55;12.95;;;;;;;10.47;76.84;99850.00;1690500;83;21220;-77
2021/09/23 11:30:44;;;;;;;18.12;14.28;;;;;;;10.46;77.00;99851.05;1696621;83;21342;-77
2021/09/23 11:33:50;;;;;;;13.35;10.43;;;;;;;10.44;77.53;99848.16;1687569;83;21239;-77
2021/09/23 11:37:01;;;;;;;13.58;11.45;;;;;;;10.42;77.85;99845.62;1676201;83;21216;-77
2021/09/23 11:40:13;;;;;;;11.08;9.93;;;;;;;10.40;77.37;99855.06;1684705;83;21276;-77
2021/09/23 11:43:21;;;;;;;12.23;10.85;;;;;;;10.38;77.69;99857.11;1685405;83;21670;-77
2021/09/23 11:46:33;;;;;;;13.35;11.65;;;;;;;10.36;77.54;99853.73;1721928;81;21638;-77
2021/09/23 11:49:39;;;;;;;13.35;10.70;;;;;;;10.34;77.80;99858.00;1701469;82;21186;-78
2021/09/23 11:52:45;;;;;;;12.33;10.20;;;;;;;10.33;77.96;99851.36;1721960;81;21851;-77
2021/09/23 11:56:02;;;;;;;9.35;8.35;;;;;;;10.33;78.17;99854.94;1724522;81;21307;-79
2021/09/23 11:59:07;;;;;;;9.30;7.75;;;;;;;10.36;78.01;99854.58;1720279;81;21182;-77
2021/09/23 12:02:13;;;;;;;10.35;8.23;;;;;;;10.41;77.47;99849.92;1724253;82;21350;-77
2021/09/23 12:05:18;;;;;;;9.10;7.42;;;;;;;10.44;77.15;99849.52;1721787;83;21315;-82
2021/09/23 12:08:30;;;;;;;8.95;6.97;;;;;;;10.49;77.04;99848.44;1675304;84;21779;-77
2021/09/23 12:11:35;;;;;;;9.20;6.95;;;;;;;10.55;76.47;99846.87;1667864;84;21977;-77
2021/09/23 12:14:45;;;;;;;9.47;8.37;;;;;;;10.59;75.88;99849.56;1652907;84;21301;-78
2021/09/23 12:18:06;;;;;;;9.13;8.13;;;;;;;10.61;75.83;99852.42;1633699;87;21214;-82
2021/09/23 12:21:19;;;;;;;11.10;7.97;;;;;;;10.66;75.79;99859.55;1663418;85;21305;-82
2021/09/23 12:24:42;;;;;;;9.88;8.83;;;;;;;10.71;75.47;99865.30;1673427;84;21843;-82
2021/09/23 12:27:48;;;;;;;16.10;8.50;;;;;;;10.74;75.18;99862.20;1662077;84;21333;-78
2021/09/23 12:30:52;;;;;;;9.93;8.63;;;;;;;10.81;75.04;99866.91;1661690;84;21432;-82
2021/09/23 12:34:01;;;;;;;11.80;8.88;;;;;;;10.85;74.95;99863.61;1659689;84;21322;-76
2021/09/23 12:37:10;;;;;;;10.72;8.65;;;;;;;10.90;74.29;99867.98;1633965;87;21925;-83
2021/09/23 12:40:19;;;;;;;10.35;9.25;;;;;;;10.95;74.08;99865.53;1665813;84;21330;-77
2021/09/23 12:43:26;;;;;;;12.20;10.90;;;;;;;11.02;73.94;99868.91;1647788;86;21204;-76
2021/09/23 12:46:35;;;;;;;12.78;10.70;;;;;;;11.04;73.57;99866.28;1653360;85;21988;-78
2021/09/23 12:49:42;;;;;;;17.85;12.45;;;;;;;11.08;73.51;99869.50;1718943;82;21267;-82
2021/09/23 12:52:51;;;;;;;13.15;11.85;;;;;;;11.11;73.18;99868.61;1681635;83;21791;-77
2021/09/23 12:55:57;;;;;;;13.43;12.00;;;;;;;11.12;73.18;99860.72;1669535;85;21351;-83
2021/09/23 12:59:25;;;;;;;16.55;14.03;;;;;;;11.19;72.62;99869.84;1684642;83;21218;-82
2021/09/23 13:02:31;;;;;;;20.68;17.05;;;;;;;11.24;72.92;99864.67;1683911;85;21951;-77
2021/09/23 13:05:37;;;;;;;24.37;17.73;;;;;;;11.31;72.79;99866.11;1672658;85;21302;-82
2021/09/23 13:08:54;;;;;;;25.85;17.92;;;;;;;11.35;72.78;99864.69;1669251;84;21291;-83
2021/09/23 13:12:16;;;;;;;20.68;17.17;;;;;;;11.36;72.67;99870.48;1668531;85;21184;-77
2021/09/23 13:15:28;;;;;;;26.57;19.55;;;;;;;11.39;72.60;99871.48;1671107;85;21849;-81
2021/09/23 13:18:35;;;;;;;23.60;18.67;;;;;;;11.43;72.89;99871.44;1676837;85;21192;-82
2021/09/23 13:21:47;;;;;;;26.33;19.05;;;;;;;11.46;73.11;99869.66;1663688;85;21305;-76
2021/09/23 13:24:58;;;;;;;25.60;18.92;;;;;;;11.50;72.93;99873.72;1684312;85;21816;-77
2021/09/23 13:28:06;;;;;;;25.62;19.60;;;;;;;11.51;72.82;99870.45;1691063;84;21555;-83
2021/09/23 13:31:14;;;;;;;30.65;20.40;;;;;;;11.48;72.24;99867.59;1674485;85;21180;-76
2021/09/23 13:34:22;;;;;;;25.32;18.45;;;;;;;11.44;72.55;99877.23;1697517;84;21188;-82
2021/09/23 13:37:29;;;;;;;39.33;26.75;;;;;;;11.37;73.98;99867.23;1664870;85;21469;-82
2021/09/23 13:40:28;;;;;;;31.27;22.93;;;;;;;11.23;74.74;99871.17;1675196;85;21294;-76
2021/09/23 13:43:34;;;;;;;37.88;26.17;;;;;;;11.15;75.39;99874.03;1688752;85;21829;-77
2021/09/23 13:46:42;;;;;;;40.33;26.90;;;;;;;11.10;76.10;99881.94;1677731;85;21346;-77
2021/09/23 13:49:47;;;;;;;33.80;24.55;;;;;;;11.05;76.85;99874.82;1688754;83;21805;-77
2021/09/23 13:52:53;;;;;;;32.28;23.52;;;;;;;10.97;77.34;99879.89;1687317;85;21335;-83
2021/09/23 13:55:59;;;;;;;36.28;25.85;;;;;;;10.96;77.78;99879.57;1686933;85;21346;-78
2021/09/23 13:59:04;;;;;;;27.77;19.98;;;;;;;10.97;77.81;99878.52;1687607;84;21248;-77
2021/09/23 14:02:09;;;;;;;41.05;27.87;;;;;;;11.01;78.11;99876.27;1688614;85;21371;-77
2021/09/23 14:05:16;;;;;;;39.40;26.87;;;;;;;11.03;78.39;99875.54;1689165;85;21291;-82
2021/09/23 14:08:21;;;;;;;44.75;28.38;;;;;;;11.05;78.86;99880.30;1688367;85;21265;-83
2021/09/23 14:11:40;;;;;;;46.23;29.90;;;;;;;11.07;79.13;99876.02;1687284;85;21331;-78
2021/09/23 14:14:49;;;;;;;44.20;29.15;;;;;;;11.07;79.34;99871.91;1685697;85;21260;-82
2021/09/23 14:17:53;;;;;;;46.37;30.45;;;;;;;11.08;79.31;99872.23;1688189;85;21358;-77
2021/09/23 14:21:00;;;;;;;42.75;29.82;;;;;;;11.08;79.25;99868.98;1689100;85;21217;-78
2021/09/23 14:24:05;;;;;;;43.20;27.65;;;;;;;11.10;79.17;99871.52;1688581;85;21323;-82
2021/09/23 14:27:11;;;;;;;38.40;27.13;;;;;;;11.08;79.02;99861.29;1687539;85;21228;-78